Time;durP1;ratioP1;P1;durP2;ratioP2;P2;SDS_P1;SDS_P2;PMS_P1;PMS_P2;Temp;Humidity;BMP_temperature;BMP_pressure;BME280_temperature;BME280_humidity;BME280_pressure;Samples;Min_cycle;Max_cycle;Signal;HPM_P1;HPM_P2
2022/07/29 00:01:28;;;;;;;0.65;0.20;;;17.10;99.90;;;;;;20664812;28;20094;-40
2022/07/29 00:11:29;;;;;;;0.65;0.10;;;17.00;99.90;;;;;;20676730;28;20026;-40
2022/07/29 00:21:30;;;;;;;0.68;0.10;;;16.90;99.90;;;;;;20666493;28;20038;-40
2022/07/29 00:31:31;;;;;;;0.50;0.10;;;16.80;99.90;;;;;;20661339;28;20089;-40
2022/07/29 00:41:32;;;;;;;0.43;0.20;;;16.70;99.90;;;;;;20669593;28;20038;-40
2022/07/29 00:51:37;;;;;;;0.82;0.30;;;16.70;99.90;;;;;;20667327;28;20049;-40
2022/07/29 01:01:38;;;;;;;1.10;0.30;;;16.60;99.90;;;;;;20665249;28;20108;-40
2022/07/29 01:11:40;;;;;;;1.08;0.25;;;16.50;99.90;;;;;;20667695;28;20038;-40
2022/07/29 01:21:57;;;;;;;0.20;0.10;;;16.50;99.90;;;;;;20664197;28;20046;-39
2022/07/29 01:32:13;;;;;;;0.50;0.30;;;16.40;99.90;;;;;;20685353;28;20038;-47
2022/07/29 01:42:29;;;;;;;0.15;0.10;;;16.40;99.90;;;;;;20679972;28;20049;-40
2022/07/29 01:52:58;;;;;;;0.52;0.10;;;16.30;99.90;;;;;;20679681;28;20613;-40
2022/07/29 02:03:02;;;;;;;0.40;0.20;;;16.30;99.90;;;;;;20680268;28;20050;-40
2022/07/29 02:13:05;;;;;;;0.25;0.15;;;16.30;99.90;;;;;;20679557;28;20249;-40
2022/07/29 02:23:09;;;;;;;0.43;0.30;;;16.10;99.90;;;;;;20679479;28;20037;-40
2022/07/29 02:33:14;;;;;;;0.73;0.32;;;16.10;99.90;;;;;;20678782;28;20031;-40
2022/07/29 02:43:17;;;;;;;2.05;0.35;;;16.10;99.90;;;;;;20682068;28;20104;-53
2022/07/29 02:53:22;;;;;;;1.25;0.50;;;16.00;99.90;;;;;;20677969;28;20556;-41
2022/07/29 03:03:27;;;;;;;1.35;0.40;;;16.00;99.90;;;;;;20679555;28;20820;-46
2022/07/29 03:13:30;;;;;;;0.93;0.30;;;15.90;99.90;;;;;;20676394;28;20897;-45
2022/07/29 03:23:31;;;;;;;0.93;0.38;;;15.90;99.90;;;;;;20674287;28;20054;-40
2022/07/29 03:33:32;;;;;;;0.63;0.20;;;15.90;99.90;;;;;;20671882;28;20038;-40
2022/07/29 03:43:37;;;;;;;0.65;0.30;;;15.80;99.90;;;;;;20673865;28;20165;-40
2022/07/29 03:53:38;;;;;;;0.75;0.30;;;15.80;99.90;;;;;;20666863;28;20045;-40
2022/07/29 04:03:39;;;;;;;0.98;0.40;;;15.70;99.90;;;;;;20673281;28;20058;-42
2022/07/29 04:13:40;;;;;;;0.43;0.20;;;15.70;99.90;;;;;;20674173;28;20050;-41
2022/07/29 04:23:44;;;;;;;1.20;0.40;;;15.80;99.90;;;;;;20650276;28;20053;-40
2022/07/29 04:33:45;;;;;;;0.50;0.20;;;15.70;99.90;;;;;;20674373;28;20034;-40
2022/07/29 04:43:46;;;;;;;0.70;0.30;;;15.70;99.90;;;;;;20672531;28;20073;-40
2022/07/29 04:53:48;;;;;;;0.85;0.35;;;15.70;99.90;;;;;;20678537;28;20038;-41
2022/07/29 05:03:49;;;;;;;1.10;0.40;;;15.80;99.90;;;;;;20692978;28;20069;-40
2022/07/29 05:13:49;;;;;;;1.00;0.30;;;15.80;99.90;;;;;;20695335;28;20370;-40
2022/07/29 05:23:51;;;;;;;0.88;0.40;;;15.90;99.90;;;;;;20690321;28;20037;-40
2022/07/29 05:33:52;;;;;;;0.70;0.30;;;15.80;99.90;;;;;;20683273;28;20033;-47
2022/07/29 05:43:54;;;;;;;0.82;0.35;;;15.80;99.90;;;;;;20684992;28;20505;-40
2022/07/29 05:53:55;;;;;;;0.52;0.30;;;15.90;99.90;;;;;;20674676;28;20046;-40
2022/07/29 06:03:56;;;;;;;0.80;0.20;;;16.00;99.90;;;;;;20680854;28;20046;-39
2022/07/29 06:13:57;;;;;;;0.30;0.15;;;16.40;99.90;;;;;;20675473;28;20088;-40
2022/07/29 06:23:58;;;;;;;1.00;0.40;;;16.90;99.90;;;;;;20683294;28;20069;-40
2022/07/29 06:33:59;;;;;;;0.88;0.30;;;17.30;99.90;;;;;;20698401;28;20125;-40
2022/07/29 06:44:00;;;;;;;1.35;0.60;;;17.10;99.90;;;;;;20672298;28;20448;-40
2022/07/29 06:54:02;;;;;;;1.00;0.30;;;17.10;99.90;;;;;;20703718;28;20042;-40
2022/07/29 07:04:04;;;;;;;1.17;0.30;;;17.30;99.90;;;;;;20723234;28;20572;-40
2022/07/29 07:14:04;;;;;;;0.75;0.40;;;17.70;99.90;;;;;;20730668;28;20029;-40
2022/07/29 07:24:06;;;;;;;0.77;0.40;;;17.90;99.90;;;;;;20719278;28;20049;-40
2022/07/29 07:34:07;;;;;;;0.85;0.30;;;18.30;99.90;;;;;;20728898;28;20137;-40
2022/07/29 07:44:08;;;;;;;1.70;0.45;;;18.60;99.90;;;;;;20725156;28;20100;-39
2022/07/29 07:54:09;;;;;;;1.00;0.50;;;18.50;99.90;;;;;;20719794;28;20038;-40
2022/07/29 08:04:10;;;;;;;2.70;0.40;;;18.50;99.90;;;;;;20710044;28;20035;-40
2022/07/29 08:14:11;;;;;;;0.90;0.30;;;18.50;99.90;;;;;;20709863;28;20070;-41
2022/07/29 08:34:32;;;;;;;0.63;0.28;;;18.90;99.90;;;;;;20698136;28;21005;-40
2022/07/29 08:44:33;;;;;;;0.52;0.30;;;19.30;99.90;;;;;;20682943;28;20339;-40
2022/07/29 08:54:35;;;;;;;1.52;0.73;;;19.50;99.90;;;;;;20672884;28;20027;-40
2022/07/29 09:04:36;;;;;;;1.33;0.50;;;19.90;99.90;;;;;;20662316;28;20107;-40
2022/07/29 09:14:38;;;;;;;1.33;0.57;;;19.80;99.90;;;;;;20665848;28;20092;-40
2022/07/29 09:24:43;;;;;;;1.20;0.38;;;19.90;99.90;;;;;;20639494;28;20038;-41
2022/07/29 09:34:44;;;;;;;1.17;0.40;;;19.90;99.90;;;;;;20649654;28;20084;-40
2022/07/29 09:44:48;;;;;;;1.08;0.55;;;20.20;99.90;;;;;;20644238;28;20062;-41
2022/07/29 09:54:50;;;;;;;14.60;0.60;;;20.70;99.90;;;;;;20640482;28;20437;-40
2022/07/29 10:04:51;;;;;;;1.75;1.10;;;21.30;99.90;;;;;;20643318;28;20065;-41
2022/07/29 10:14:52;;;;;;;1.00;0.40;;;21.70;99.90;;;;;;20668547;28;20673;-40
2022/07/29 10:24:54;;;;;;;1.15;0.52;;;21.70;99.90;;;;;;20659248;28;20163;-40
2022/07/29 10:35:21;;;;;;;0.85;0.40;;;21.80;99.90;;;;;;20664366;28;20042;-40
2022/07/29 10:45:23;;;;;;;1.43;0.80;;;21.60;99.90;;;;;;20631747;28;20861;-41
2022/07/29 10:55:42;;;;;;;3.17;0.80;;;21.60;99.90;;;;;;20637592;28;20149;-41
2022/07/29 11:05:56;;;;;;;1.50;0.60;;;21.50;99.90;;;;;;20630483;28;20549;-40
2022/07/29 11:15:58;;;;;;;1.67;0.50;;;21.60;99.90;;;;;;20624618;28;20593;-39
2022/07/29 11:26:14;;;;;;;0.93;0.38;;;22.50;99.90;;;;;;20629843;28;20136;-39
2022/07/29 11:36:15;;;;;;;1.25;0.50;;;23.20;99.90;;;;;;20650089;28;20363;-39
2022/07/29 11:46:38;;;;;;;1.40;0.57;;;23.30;99.90;;;;;;20648312;28;20054;-39
2022/07/29 11:56:43;;;;;;;0.77;0.30;;;23.30;99.90;;;;;;20629747;28;20872;-39
2022/07/29 12:06:52;;;;;;;1.20;0.30;;;23.70;99.90;;;;;;20630448;28;20042;-38
2022/07/29 12:16:54;;;;;;;1.17;0.50;;;23.80;99.90;;;;;;20620814;28;20168;-39
2022/07/29 12:26:56;;;;;;;2.20;0.30;;;24.00;99.90;;;;;;20630663;28;20066;-39
2022/07/29 12:36:57;;;;;;;1.10;0.50;;;24.20;99.90;;;;;;20626253;28;20539;-39
2022/07/29 12:47:03;;;;;;;3.05;0.43;;;24.40;99.90;;;;;;20624948;28;20133;-39
2022/07/29 12:57:04;;;;;;;1.65;0.73;;;24.90;99.90;;;;;;20621005;28;20187;-37
2022/07/29 13:07:07;;;;;;;0.82;0.30;;;25.20;99.90;;;;;;20625626;28;20191;-36
2022/07/29 13:17:12;;;;;;;4.07;0.88;;;25.50;99.90;;;;;;20624949;28;20049;-38
2022/07/29 13:27:21;;;;;;;1.00;0.40;;;25.90;99.90;;;;;;20639490;28;20050;-38
2022/07/29 13:37:22;;;;;;;2.53;0.50;;;26.50;99.50;;;;;;20634694;28;20038;-37
2022/07/29 13:47:23;;;;;;;0.73;0.30;;;26.40;98.80;;;;;;20638054;28;20964;-37
2022/07/29 13:57:24;;;;;;;1.38;0.50;;;26.80;98.60;;;;;;20633383;28;20387;-37
2022/07/29 14:07:25;;;;;;;0.73;0.35;;;26.20;98.70;;;;;;20617637;28;20629;-37
2022/07/29 14:17:26;;;;;;;0.50;0.20;;;26.00;98.90;;;;;;20632500;28;20461;-38
2022/07/29 14:27:27;;;;;;;2.75;0.60;;;26.00;98.30;;;;;;20637662;28;20050;-37
2022/07/29 14:37:28;;;;;;;1.13;0.32;;;25.60;98.60;;;;;;20632094;28;20105;-37
2022/07/29 14:47:29;;;;;;;0.98;0.55;;;25.70;99.10;;;;;;20628648;28;20038;-37
2022/07/29 14:57:30;;;;;;;2.70;0.50;;;25.60;99.00;;;;;;20631592;28;20049;-37
2022/07/29 15:07:31;;;;;;;0.80;0.45;;;25.40;99.10;;;;;;20630214;28;20107;-37
2022/07/29 15:17:32;;;;;;;1.40;0.50;;;25.50;99.90;;;;;;20628846;28;20423;-37
2022/07/29 15:27:34;;;;;;;1.23;0.47;;;25.40;99.70;;;;;;20628468;28;20089;-37
2022/07/29 15:37:36;;;;;;;1.05;0.38;;;24.80;99.90;;;;;;20624083;28;20518;-37
2022/07/29 15:47:37;;;;;;;1.15;0.60;;;24.70;99.90;;;;;;20607647;28;20049;-37
2022/07/29 15:57:39;;;;;;;1.35;0.57;;;24.60;99.90;;;;;;20624449;28;20146;-37
2022/07/29 16:07:40;;;;;;;0.88;0.43;;;24.50;99.90;;;;;;20616176;28;20180;-37
2022/07/29 16:17:41;;;;;;;1.33;0.43;;;24.40;99.90;;;;;;20620895;28;20037;-38
2022/07/29 16:27:42;;;;;;;1.35;0.43;;;24.20;99.90;;;;;;20614892;28;20042;-37
2022/07/29 16:37:43;;;;;;;0.57;0.28;;;23.90;99.90;;;;;;20623277;28;20108;-37
2022/07/29 16:47:44;;;;;;;2.05;0.90;;;23.80;99.90;;;;;;20615101;28;20053;-37
2022/07/29 16:57:45;;;;;;;1.98;0.60;;;23.60;99.90;;;;;;20632461;28;20053;-37
2022/07/29 17:07:47;;;;;;;1.25;0.43;;;23.30;99.90;;;;;;20635341;28;20516;-37
2022/07/29 17:17:49;;;;;;;0.65;0.40;;;23.10;99.90;;;;;;20635425;28;20074;-40
2022/07/29 17:27:50;;;;;;;0.77;0.30;;;23.00;99.90;;;;;;20644988;28;20041;-40
2022/07/29 17:37:51;;;;;;;1.55;0.60;;;22.90;99.90;;;;;;20638799;28;20553;-40
2022/07/29 17:47:52;;;;;;;0.63;0.30;;;22.80;99.90;;;;;;20633199;28;20090;-39
2022/07/29 17:57:53;;;;;;;0.73;0.45;;;22.70;99.90;;;;;;20632854;28;20066;-39
2022/07/29 18:07:55;;;;;;;2.35;0.60;;;22.50;99.90;;;;;;20630134;28;20133;-39
2022/07/29 18:17:56;;;;;;;1.38;0.47;;;22.40;99.90;;;;;;20630640;28;21902;-40
2022/07/29 18:27:57;;;;;;;1.88;0.50;;;22.20;99.90;;;;;;20620771;28;20186;-39
2022/07/29 18:37:58;;;;;;;0.85;0.40;;;22.00;99.90;;;;;;20623127;28;20583;-39
2022/07/29 18:48:00;;;;;;;1.48;0.50;;;21.80;99.90;;;;;;20632075;28;20193;-39
2022/07/29 18:58:01;;;;;;;1.45;0.52;;;21.60;99.90;;;;;;20625769;28;20171;-39
2022/07/29 19:08:03;;;;;;;1.45;0.50;;;21.40;99.90;;;;;;20619268;28;20080;-40
2022/07/29 19:18:04;;;;;;;1.35;0.52;;;21.20;99.90;;;;;;20623852;28;20121;-39
2022/07/29 19:28:05;;;;;;;1.73;0.93;;;21.10;99.90;;;;;;20619920;28;20875;-41
2022/07/29 19:38:06;;;;;;;1.40;0.60;;;20.90;99.90;;;;;;20614861;28;20478;-40
2022/07/29 19:48:07;;;;;;;0.70;0.30;;;20.80;99.90;;;;;;20611927;28;20690;-40
2022/07/29 19:58:08;;;;;;;1.48;0.60;;;20.80;99.90;;;;;;20599413;28;20149;-41
2022/07/29 20:08:09;;;;;;;9.60;0.80;;;20.60;99.90;;;;;;20614095;28;20198;-40
2022/07/29 20:18:10;;;;;;;1.00;0.40;;;20.50;99.90;;;;;;20620894;28;20148;-41
2022/07/29 20:28:11;;;;;;;1.58;0.52;;;20.40;99.90;;;;;;20621011;28;20457;-41
2022/07/29 20:38:12;;;;;;;1.58;0.60;;;20.10;99.90;;;;;;20589284;28;1095401;-41
2022/07/29 20:48:13;;;;;;;1.27;0.40;;;19.90;99.90;;;;;;20627542;28;20075;-40
2022/07/29 20:58:14;;;;;;;5.00;0.68;;;19.70;99.90;;;;;;20618905;28;21347;-40
2022/07/29 21:08:15;;;;;;;1.65;0.70;;;19.40;99.90;;;;;;20627219;28;20390;-40
2022/07/29 21:18:35;;;;;;;1.70;0.60;;;19.30;99.90;;;;;;20632100;28;20516;-40
2022/07/29 21:28:40;;;;;;;1.88;0.55;;;19.10;99.90;;;;;;20638941;28;20921;-40
2022/07/29 21:38:41;;;;;;;1.27;0.52;;;19.00;99.90;;;;;;20643066;28;20535;-39
2022/07/29 21:48:42;;;;;;;3.55;0.90;;;18.70;99.90;;;;;;20648834;28;20641;-39
2022/07/29 21:58:43;;;;;;;3.25;0.80;;;18.60;99.90;;;;;;20671581;28;20042;-40
2022/07/29 22:08:46;;;;;;;2.05;0.60;;;18.50;99.90;;;;;;20677623;28;20042;-39
2022/07/29 22:18:47;;;;;;;2.58;0.85;;;18.40;99.90;;;;;;20689597;28;20108;-40
2022/07/29 22:28:48;;;;;;;2.15;0.60;;;18.30;99.90;;;;;;20691373;28;20044;-39
2022/07/29 22:38:49;;;;;;;1.63;0.70;;;18.20;99.90;;;;;;20697376;28;20043;-39
2022/07/29 22:48:50;;;;;;;1.48;0.60;;;18.10;99.90;;;;;;20698360;28;20088;-39
2022/07/29 22:58:54;;;;;;;2.50;0.80;;;17.90;99.90;;;;;;20701354;28;20737;-40
2022/07/29 23:08:55;;;;;;;2.20;0.65;;;17.70;99.90;;;;;;20700850;28;20031;-40
2022/07/29 23:18:56;;;;;;;1.77;0.60;;;17.70;99.90;;;;;;20702581;28;20082;-39
2022/07/29 23:28:57;;;;;;;2.97;1.15;;;17.50;99.90;;;;;;20703484;28;20041;-39
2022/07/29 23:38:58;;;;;;;2.35;1.00;;;17.40;99.90;;;;;;20694286;28;20210;-40
2022/07/29 23:48:59;;;;;;;1.85;0.82;;;17.30;99.90;;;;;;20700230;28;20034;-39
2022/07/29 23:59:00;;;;;;;1.48;0.60;;;17.20;99.90;;;;;;20702863;28;20041;-38
